sensor_id;sensor_type;location;lat;lon;timestamp;temperature;humidity
4962;DHT22;2496;52.468;13.342;2023-05-10T00:01:31;13.00;90.10
4962;DHT22;2496;52.468;13.342;2023-05-10T00:03:58;13.00;90.20
4962;DHT22;2496;52.468;13.342;2023-05-10T00:06:25;12.90;90.30
4962;DHT22;2496;52.468;13.342;2023-05-10T00:08:52;13.00;90.30
4962;DHT22;2496;52.468;13.342;2023-05-10T00:11:19;12.90;90.30
4962;DHT22;2496;52.468;13.342;2023-05-10T00:13:48;12.90;90.30
4962;DHT22;2496;52.468;13.342;2023-05-10T00:16:15;13.00;90.30
4962;DHT22;2496;52.468;13.342;2023-05-10T00:18:42;12.90;90.20
4962;DHT22;2496;52.468;13.342;2023-05-10T00:21:08;12.90;90.40
4962;DHT22;2496;52.468;13.342;2023-05-10T00:23:35;12.90;90.30
4962;DHT22;2496;52.468;13.342;2023-05-10T00:26:03;12.90;90.40
4962;DHT22;2496;52.468;13.342;2023-05-10T00:28:30;12.80;90.40
4962;DHT22;2496;52.468;13.342;2023-05-10T00:30:58;12.80;90.40
4962;DHT22;2496;52.468;13.342;2023-05-10T00:33:25;12.80;90.40
4962;DHT22;2496;52.468;13.342;2023-05-10T00:35:52;12.80;90.50
4962;DHT22;2496;52.468;13.342;2023-05-10T00:38:19;12.80;90.60
4962;DHT22;2496;52.468;13.342;2023-05-10T00:40:46;12.80;90.60
4962;DHT22;2496;52.468;13.342;2023-05-10T00:43:13;12.80;90.50
4962;DHT22;2496;52.468;13.342;2023-05-10T00:45:40;12.70;90.60
4962;DHT22;2496;52.468;13.342;2023-05-10T00:48:09;12.70;90.70
4962;DHT22;2496;52.468;13.342;2023-05-10T00:50:36;12.60;90.80
4962;DHT22;2496;52.468;13.342;2023-05-10T00:53:04;12.50;91.10
4962;DHT22;2496;52.468;13.342;2023-05-10T00:55:31;12.50;91.20
4962;DHT22;2496;52.468;13.342;2023-05-10T00:57:58;12.50;91.50
4962;DHT22;2496;52.468;13.342;2023-05-10T01:00:25;12.40;91.40
4962;DHT22;2496;52.468;13.342;2023-05-10T01:02:53;12.30;91.50
4962;DHT22;2496;52.468;13.342;2023-05-10T01:05:22;12.30;91.60
4962;DHT22;2496;52.468;13.342;2023-05-10T01:07:49;12.30;91.50
4962;DHT22;2496;52.468;13.342;2023-05-10T01:10:16;12.20;91.70
4962;DHT22;2496;52.468;13.342;2023-05-10T01:12:44;12.10;91.80
4962;DHT22;2496;52.468;13.342;2023-05-10T01:15:14;12.10;91.80
4962;DHT22;2496;52.468;13.342;2023-05-10T01:17:43;12.10;91.80
4962;DHT22;2496;52.468;13.342;2023-05-10T01:20:12;12.10;91.90
4962;DHT22;2496;52.468;13.342;2023-05-10T01:23:19;12.10;91.90
4962;DHT22;2496;52.468;13.342;2023-05-10T01:26:17;12.00;91.90
4962;DHT22;2496;52.468;13.342;2023-05-10T01:32:24;11.90;92.10
4962;DHT22;2496;52.468;13.342;2023-05-10T01:34:59;12.00;92.10
4962;DHT22;2496;52.468;13.342;2023-05-10T01:37:33;11.90;92.40
4962;DHT22;2496;52.468;13.342;2023-05-10T01:40:08;11.90;92.30
4962;DHT22;2496;52.468;13.342;2023-05-10T01:42:42;11.90;92.30
4962;DHT22;2496;52.468;13.342;2023-05-10T01:45:20;11.90;92.40
4962;DHT22;2496;52.468;13.342;2023-05-10T01:47:58;11.90;92.50
4962;DHT22;2496;52.468;13.342;2023-05-10T01:50:30;11.90;92.50
4962;DHT22;2496;52.468;13.342;2023-05-10T01:52:59;11.80;92.50
4962;DHT22;2496;52.468;13.342;2023-05-10T01:55:29;11.80;92.50
4962;DHT22;2496;52.468;13.342;2023-05-10T01:58:02;11.80;92.70
4962;DHT22;2496;52.468;13.342;2023-05-10T02:00:29;11.80;92.70
4962;DHT22;2496;52.468;13.342;2023-05-10T02:03:00;11.70;92.80
4962;DHT22;2496;52.468;13.342;2023-05-10T02:05:30;11.70;92.90
4962;DHT22;2496;52.468;13.342;2023-05-10T02:07:59;11.70;92.80
4962;DHT22;2496;52.468;13.342;2023-05-10T02:10:28;11.60;93.00
4962;DHT22;2496;52.468;13.342;2023-05-10T02:12:55;11.60;93.10
4962;DHT22;2496;52.468;13.342;2023-05-10T02:15:26;11.60;93.20
4962;DHT22;2496;52.468;13.342;2023-05-10T02:17:55;11.50;93.30
4962;DHT22;2496;52.468;13.342;2023-05-10T02:20:25;11.50;93.30
4962;DHT22;2496;52.468;13.342;2023-05-10T02:22:54;11.50;93.40
4962;DHT22;2496;52.468;13.342;2023-05-10T02:25:23;11.50;93.50
4962;DHT22;2496;52.468;13.342;2023-05-10T02:27:53;11.40;93.70
4962;DHT22;2496;52.468;13.342;2023-05-10T02:30:22;11.30;93.90
4962;DHT22;2496;52.468;13.342;2023-05-10T02:32:49;11.30;93.80
4962;DHT22;2496;52.468;13.342;2023-05-10T02:35:17;11.30;93.90
4962;DHT22;2496;52.468;13.342;2023-05-10T02:37:47;11.30;93.90
4962;DHT22;2496;52.468;13.342;2023-05-10T02:40:15;11.30;94.10
4962;DHT22;2496;52.468;13.342;2023-05-10T02:42:44;11.30;94.10
4962;DHT22;2496;52.468;13.342;2023-05-10T02:45:14;11.20;94.20
4962;DHT22;2496;52.468;13.342;2023-05-10T02:47:42;11.10;94.40
4962;DHT22;2496;52.468;13.342;2023-05-10T02:50:09;11.10;94.50
4962;DHT22;2496;52.468;13.342;2023-05-10T02:52:41;11.00;94.60
4962;DHT22;2496;52.468;13.342;2023-05-10T02:55:14;11.00;94.60
4962;DHT22;2496;52.468;13.342;2023-05-10T02:57:44;11.00;94.70
4962;DHT22;2496;52.468;13.342;2023-05-10T03:00:13;11.00;94.70
4962;DHT22;2496;52.468;13.342;2023-05-10T03:02:40;11.00;94.80
4962;DHT22;2496;52.468;13.342;2023-05-10T03:05:08;11.00;94.90
4962;DHT22;2496;52.468;13.342;2023-05-10T03:07:35;10.90;94.90
4962;DHT22;2496;52.468;13.342;2023-05-10T03:10:03;11.00;95.00
4962;DHT22;2496;52.468;13.342;2023-05-10T03:12:40;10.90;95.00
4962;DHT22;2496;52.468;13.342;2023-05-10T03:15:13;10.90;95.00
4962;DHT22;2496;52.468;13.342;2023-05-10T03:17:47;10.90;95.10
4962;DHT22;2496;52.468;13.342;2023-05-10T03:20:20;10.90;95.10
4962;DHT22;2496;52.468;13.342;2023-05-10T03:22:53;10.90;95.00
4962;DHT22;2496;52.468;13.342;2023-05-10T03:25:22;10.80;95.20
4962;DHT22;2496;52.468;13.342;2023-05-10T03:27:52;10.90;95.10
4962;DHT22;2496;52.468;13.342;2023-05-10T03:30:19;10.80;95.20
4962;DHT22;2496;52.468;13.342;2023-05-10T03:32:46;10.80;95.20
4962;DHT22;2496;52.468;13.342;2023-05-10T03:35:14;10.80;95.30
4962;DHT22;2496;52.468;13.342;2023-05-10T03:37:41;10.70;95.40
4962;DHT22;2496;52.468;13.342;2023-05-10T03:40:09;10.80;95.30
4962;DHT22;2496;52.468;13.342;2023-05-10T03:42:36;10.80;95.30
4962;DHT22;2496;52.468;13.342;2023-05-10T03:45:06;10.70;95.50
4962;DHT22;2496;52.468;13.342;2023-05-10T03:47:33;10.70;95.40
4962;DHT22;2496;52.468;13.342;2023-05-10T03:50:00;10.70;95.40
4962;DHT22;2496;52.468;13.342;2023-05-10T03:52:28;10.80;95.40
4962;DHT22;2496;52.468;13.342;2023-05-10T03:54:55;10.70;95.60
4962;DHT22;2496;52.468;13.342;2023-05-10T03:57:22;10.80;95.60
4962;DHT22;2496;52.468;13.342;2023-05-10T03:59:49;10.70;95.60
4962;DHT22;2496;52.468;13.342;2023-05-10T04:02:17;10.70;95.60
4962;DHT22;2496;52.468;13.342;2023-05-10T04:04:44;10.70;95.70
4962;DHT22;2496;52.468;13.342;2023-05-10T04:07:11;10.70;95.70
4962;DHT22;2496;52.468;13.342;2023-05-10T04:09:38;10.70;95.70
4962;DHT22;2496;52.468;13.342;2023-05-10T04:12:05;10.70;95.80
4962;DHT22;2496;52.468;13.342;2023-05-10T04:14:33;10.70;95.70
4962;DHT22;2496;52.468;13.342;2023-05-10T04:17:00;10.80;95.60
4962;DHT22;2496;52.468;13.342;2023-05-10T04:19:30;10.90;95.60
4962;DHT22;2496;52.468;13.342;2023-05-10T04:21:58;10.90;95.50
4962;DHT22;2496;52.468;13.342;2023-05-10T04:24:25;10.90;95.50
4962;DHT22;2496;52.468;13.342;2023-05-10T04:26:54;10.90;95.60
4962;DHT22;2496;52.468;13.342;2023-05-10T04:29:21;11.00;95.50
4962;DHT22;2496;52.468;13.342;2023-05-10T04:31:48;10.90;95.60
4962;DHT22;2496;52.468;13.342;2023-05-10T04:34:16;10.90;95.70
4962;DHT22;2496;52.468;13.342;2023-05-10T04:36:44;10.90;95.70
4962;DHT22;2496;52.468;13.342;2023-05-10T04:39:11;11.00;95.60
4962;DHT22;2496;52.468;13.342;2023-05-10T04:41:39;11.00;95.50
4962;DHT22;2496;52.468;13.342;2023-05-10T04:44:06;11.10;95.40
4962;DHT22;2496;52.468;13.342;2023-05-10T04:46:33;11.10;95.50
4962;DHT22;2496;52.468;13.342;2023-05-10T04:49:00;11.10;95.20
4962;DHT22;2496;52.468;13.342;2023-05-10T04:51:27;11.30;95.10
4962;DHT22;2496;52.468;13.342;2023-05-10T04:53:55;11.30;95.10
4962;DHT22;2496;52.468;13.342;2023-05-10T04:56:22;11.30;95.10
4962;DHT22;2496;52.468;13.342;2023-05-10T04:58:49;11.40;95.00
4962;DHT22;2496;52.468;13.342;2023-05-10T05:01:17;11.40;94.90
4962;DHT22;2496;52.468;13.342;2023-05-10T05:03:44;11.50;94.90
4962;DHT22;2496;52.468;13.342;2023-05-10T05:06:11;11.50;94.80
4962;DHT22;2496;52.468;13.342;2023-05-10T05:08:38;11.60;94.70
4962;DHT22;2496;52.468;13.342;2023-05-10T05:11:06;11.70;94.60
4962;DHT22;2496;52.468;13.342;2023-05-10T05:13:33;11.70;94.60
4962;DHT22;2496;52.468;13.342;2023-05-10T05:16:00;11.80;94.50
4962;DHT22;2496;52.468;13.342;2023-05-10T05:18:28;11.80;94.40
4962;DHT22;2496;52.468;13.342;2023-05-10T05:20:55;11.90;94.40
4962;DHT22;2496;52.468;13.342;2023-05-10T05:23:22;11.90;94.40
4962;DHT22;2496;52.468;13.342;2023-05-10T05:25:51;12.00;94.30
4962;DHT22;2496;52.468;13.342;2023-05-10T05:28:20;12.10;94.60
4962;DHT22;2496;52.468;13.342;2023-05-10T05:30:47;12.20;94.40
4962;DHT22;2496;52.468;13.342;2023-05-10T05:33:14;12.50;94.10
4962;DHT22;2496;52.468;13.342;2023-05-10T05:35:42;13.20;93.50
4962;DHT22;2496;52.468;13.342;2023-05-10T05:38:13;14.10;92.60
4962;DHT22;2496;52.468;13.342;2023-05-10T05:40:40;14.90;91.80
4962;DHT22;2496;52.468;13.342;2023-05-10T05:43:07;15.40;91.10
4962;DHT22;2496;52.468;13.342;2023-05-10T05:45:35;15.40;90.30
4962;DHT22;2496;52.468;13.342;2023-05-10T05:48:02;15.60;90.60
4962;DHT22;2496;52.468;13.342;2023-05-10T05:50:29;15.30;90.40
4962;DHT22;2496;52.468;13.342;2023-05-10T05:52:56;15.30;90.70
4962;DHT22;2496;52.468;13.342;2023-05-10T05:55:24;15.40;90.50
4962;DHT22;2496;52.468;13.342;2023-05-10T05:57:51;15.30;90.40
4962;DHT22;2496;52.468;13.342;2023-05-10T06:00:18;15.10;90.40
4962;DHT22;2496;52.468;13.342;2023-05-10T06:02:49;15.00;90.60
4962;DHT22;2496;52.468;13.342;2023-05-10T06:05:16;14.80;90.80
4962;DHT22;2496;52.468;13.342;2023-05-10T06:07:43;14.60;91.30
4962;DHT22;2496;52.468;13.342;2023-05-10T06:10:10;14.70;91.30
4962;DHT22;2496;52.468;13.342;2023-05-10T06:12:37;14.90;91.30
4962;DHT22;2496;52.468;13.342;2023-05-10T06:15:05;14.80;91.30
4962;DHT22;2496;52.468;13.342;2023-05-10T06:17:32;15.00;91.20
4962;DHT22;2496;52.468;13.342;2023-05-10T06:20:01;14.80;91.10
4962;DHT22;2496;52.468;13.342;2023-05-10T06:22:28;14.90;91.20
4962;DHT22;2496;52.468;13.342;2023-05-10T06:24:55;15.10;91.10
4962;DHT22;2496;52.468;13.342;2023-05-10T06:27:22;15.20;90.90
4962;DHT22;2496;52.468;13.342;2023-05-10T06:29:50;15.20;90.70
4962;DHT22;2496;52.468;13.342;2023-05-10T06:32:17;15.30;90.80
4962;DHT22;2496;52.468;13.342;2023-05-10T06:34:43;15.10;90.90
4962;DHT22;2496;52.468;13.342;2023-05-10T06:37:13;15.20;90.80
4962;DHT22;2496;52.468;13.342;2023-05-10T06:39:40;15.30;90.70
4962;DHT22;2496;52.468;13.342;2023-05-10T06:42:08;15.40;90.40
4962;DHT22;2496;52.468;13.342;2023-05-10T06:44:35;15.50;90.20
4962;DHT22;2496;52.468;13.342;2023-05-10T06:47:02;15.50;90.10
4962;DHT22;2496;52.468;13.342;2023-05-10T06:49:29;15.60;90.20
4962;DHT22;2496;52.468;13.342;2023-05-10T06:51:56;15.60;90.10
4962;DHT22;2496;52.468;13.342;2023-05-10T06:54:25;15.50;90.20
4962;DHT22;2496;52.468;13.342;2023-05-10T06:56:52;15.40;90.50
4962;DHT22;2496;52.468;13.342;2023-05-10T06:59:19;15.50;90.50
4962;DHT22;2496;52.468;13.342;2023-05-10T07:01:47;15.40;90.40
4962;DHT22;2496;52.468;13.342;2023-05-10T07:04:14;15.70;90.70
4962;DHT22;2496;52.468;13.342;2023-05-10T07:06:41;15.90;90.60
4962;DHT22;2496;52.468;13.342;2023-05-10T07:09:08;16.10;90.60
4962;DHT22;2496;52.468;13.342;2023-05-10T07:11:36;16.30;90.00
4962;DHT22;2496;52.468;13.342;2023-05-10T07:14:03;16.40;90.00
4962;DHT22;2496;52.468;13.342;2023-05-10T07:16:30;16.30;90.00
4962;DHT22;2496;52.468;13.342;2023-05-10T07:18:57;16.50;89.80
4962;DHT22;2496;52.468;13.342;2023-05-10T07:21:24;16.60;89.50
4962;DHT22;2496;52.468;13.342;2023-05-10T07:23:54;16.80;88.70
4962;DHT22;2496;52.468;13.342;2023-05-10T07:26:21;16.70;88.90
4962;DHT22;2496;52.468;13.342;2023-05-10T07:28:49;16.80;89.10
4962;DHT22;2496;52.468;13.342;2023-05-10T07:31:16;16.90;88.60
4962;DHT22;2496;52.468;13.342;2023-05-10T07:33:43;17.00;88.10
4962;DHT22;2496;52.468;13.342;2023-05-10T07:36:11;17.20;87.90
4962;DHT22;2496;52.468;13.342;2023-05-10T07:38:38;17.20;87.60
4962;DHT22;2496;52.468;13.342;2023-05-10T07:41:05;17.50;87.80
4962;DHT22;2496;52.468;13.342;2023-05-10T07:43:32;17.70;87.20
4962;DHT22;2496;52.468;13.342;2023-05-10T07:46:01;17.90;87.20
4962;DHT22;2496;52.468;13.342;2023-05-10T07:48:28;18.20;86.10
4962;DHT22;2496;52.468;13.342;2023-05-10T07:50:55;18.20;85.10
4962;DHT22;2496;52.468;13.342;2023-05-10T07:53:22;18.10;85.10
4962;DHT22;2496;52.468;13.342;2023-05-10T07:55:50;18.20;85.00
4962;DHT22;2496;52.468;13.342;2023-05-10T07:58:17;18.30;85.00
4962;DHT22;2496;52.468;13.342;2023-05-10T08:03:13;18.60;84.50
4962;DHT22;2496;52.468;13.342;2023-05-10T08:05:40;19.00;84.40
4962;DHT22;2496;52.468;13.342;2023-05-10T08:08:07;19.20;83.20
4962;DHT22;2496;52.468;13.342;2023-05-10T08:10:34;19.30;82.30
4962;DHT22;2496;52.468;13.342;2023-05-10T08:13:01;19.20;82.50
4962;DHT22;2496;52.468;13.342;2023-05-10T08:15:28;19.00;83.30
4962;DHT22;2496;52.468;13.342;2023-05-10T08:17:55;19.10;82.60
4962;DHT22;2496;52.468;13.342;2023-05-10T08:20:23;19.10;82.50
4962;DHT22;2496;52.468;13.342;2023-05-10T08:22:50;19.10;82.60
4962;DHT22;2496;52.468;13.342;2023-05-10T08:25:17;19.30;82.50
4962;DHT22;2496;52.468;13.342;2023-05-10T08:27:45;19.10;83.20
4962;DHT22;2496;52.468;13.342;2023-05-10T08:30:12;19.40;83.00
4962;DHT22;2496;52.468;13.342;2023-05-10T08:32:39;19.60;81.80
4962;DHT22;2496;52.468;13.342;2023-05-10T08:35:06;19.70;81.30
4962;DHT22;2496;52.468;13.342;2023-05-10T08:37:35;19.90;81.50
4962;DHT22;2496;52.468;13.342;2023-05-10T08:40:02;20.00;81.20
4962;DHT22;2496;52.468;13.342;2023-05-10T08:42:30;20.20;81.40
4962;DHT22;2496;52.468;13.342;2023-05-10T08:45:02;20.40;80.30
4962;DHT22;2496;52.468;13.342;2023-05-10T08:47:30;20.50;80.50
4962;DHT22;2496;52.468;13.342;2023-05-10T08:49:58;20.80;80.10
4962;DHT22;2496;52.468;13.342;2023-05-10T08:52:26;21.00;79.40
4962;DHT22;2496;52.468;13.342;2023-05-10T08:54:56;21.00;79.30
4962;DHT22;2496;52.468;13.342;2023-05-10T08:57:23;21.20;79.00
4962;DHT22;2496;52.468;13.342;2023-05-10T08:59:50;21.10;78.90
4962;DHT22;2496;52.468;13.342;2023-05-10T09:02:18;21.20;79.00
4962;DHT22;2496;52.468;13.342;2023-05-10T09:04:47;21.30;78.80
4962;DHT22;2496;52.468;13.342;2023-05-10T09:07:14;21.40;78.20
4962;DHT22;2496;52.468;13.342;2023-05-10T09:09:42;21.50;78.20
4962;DHT22;2496;52.468;13.342;2023-05-10T09:12:11;21.50;77.50
4962;DHT22;2496;52.468;13.342;2023-05-10T09:14:38;21.40;77.20
4962;DHT22;2496;52.468;13.342;2023-05-10T09:17:06;21.40;78.10
4962;DHT22;2496;52.468;13.342;2023-05-10T09:19:33;21.50;77.60
4962;DHT22;2496;52.468;13.342;2023-05-10T09:22:00;21.70;77.50
4962;DHT22;2496;52.468;13.342;2023-05-10T09:24:30;21.90;77.30
4962;DHT22;2496;52.468;13.342;2023-05-10T09:26:57;21.80;76.50
4962;DHT22;2496;52.468;13.342;2023-05-10T09:29:39;21.40;77.30
4962;DHT22;2496;52.468;13.342;2023-05-10T09:32:06;21.30;78.10
4962;DHT22;2496;52.468;13.342;2023-05-10T09:34:33;21.20;78.30
4962;DHT22;2496;52.468;13.342;2023-05-10T09:37:02;20.90;78.10
4962;DHT22;2496;52.468;13.342;2023-05-10T09:39:33;20.90;78.10
4962;DHT22;2496;52.468;13.342;2023-05-10T09:42:03;20.90;79.20
4962;DHT22;2496;52.468;13.342;2023-05-10T09:44:32;20.50;79.30
4962;DHT22;2496;52.468;13.342;2023-05-10T09:47:00;20.50;79.50
4962;DHT22;2496;52.468;13.342;2023-05-10T09:49:28;20.40;80.50
4962;DHT22;2496;52.468;13.342;2023-05-10T09:52:03;20.40;79.00
4962;DHT22;2496;52.468;13.342;2023-05-10T09:54:31;20.40;79.70
4962;DHT22;2496;52.468;13.342;2023-05-10T09:56:58;20.30;80.30
4962;DHT22;2496;52.468;13.342;2023-05-10T09:59:26;20.40;81.00
4962;DHT22;2496;52.468;13.342;2023-05-10T10:01:56;20.30;80.00
4962;DHT22;2496;52.468;13.342;2023-05-10T10:04:23;20.20;80.20
4962;DHT22;2496;52.468;13.342;2023-05-10T10:07:01;20.10;80.50
4962;DHT22;2496;52.468;13.342;2023-05-10T10:09:28;20.10;80.80
4962;DHT22;2496;52.468;13.342;2023-05-10T10:11:55;20.20;80.40
4962;DHT22;2496;52.468;13.342;2023-05-10T10:14:23;20.20;80.20
4962;DHT22;2496;52.468;13.342;2023-05-10T10:16:51;20.20;79.60
4962;DHT22;2496;52.468;13.342;2023-05-10T10:19:20;20.10;79.90
4962;DHT22;2496;52.468;13.342;2023-05-10T10:21:47;20.00;80.70
4962;DHT22;2496;52.468;13.342;2023-05-10T10:24:14;20.00;81.20
4962;DHT22;2496;52.468;13.342;2023-05-10T10:26:42;20.10;81.40
4962;DHT22;2496;52.468;13.342;2023-05-10T10:29:20;20.30;80.90
4962;DHT22;2496;52.468;13.342;2023-05-10T10:31:54;20.10;79.70
4962;DHT22;2496;52.468;13.342;2023-05-10T10:34:27;20.00;79.50
4962;DHT22;2496;52.468;13.342;2023-05-10T10:36:56;19.90;79.80
4962;DHT22;2496;52.468;13.342;2023-05-10T10:39:23;19.90;80.30
4962;DHT22;2496;52.468;13.342;2023-05-10T10:41:52;19.90;80.70
4962;DHT22;2496;52.468;13.342;2023-05-10T10:44:34;19.90;80.20
4962;DHT22;2496;52.468;13.342;2023-05-10T10:47:04;20.00;80.20
4962;DHT22;2496;52.468;13.342;2023-05-10T10:49:38;20.10;80.40
4962;DHT22;2496;52.468;13.342;2023-05-10T10:52:32;20.20;80.00
4962;DHT22;2496;52.468;13.342;2023-05-10T10:55:02;20.20;80.50
4962;DHT22;2496;52.468;13.342;2023-05-10T10:57:32;20.20;79.80
4962;DHT22;2496;52.468;13.342;2023-05-10T11:00:20;20.20;80.10
4962;DHT22;2496;52.468;13.342;2023-05-10T11:02:48;20.40;79.90
4962;DHT22;2496;52.468;13.342;2023-05-10T11:05:36;20.40;79.80
4962;DHT22;2496;52.468;13.342;2023-05-10T11:08:14;20.40;80.30
4962;DHT22;2496;52.468;13.342;2023-05-10T11:10:50;20.40;80.00
4962;DHT22;2496;52.468;13.342;2023-05-10T11:13:27;20.30;80.80
4962;DHT22;2496;52.468;13.342;2023-05-10T11:15:56;20.40;80.40
4962;DHT22;2496;52.468;13.342;2023-05-10T11:18:25;20.50;79.40
4962;DHT22;2496;52.468;13.342;2023-05-10T11:20:57;20.50;80.20
4962;DHT22;2496;52.468;13.342;2023-05-10T11:23:29;20.50;80.10
4962;DHT22;2496;52.468;13.342;2023-05-10T11:25:58;20.50;80.00
4962;DHT22;2496;52.468;13.342;2023-05-10T11:28:26;20.60;80.40
4962;DHT22;2496;52.468;13.342;2023-05-10T11:30:53;20.70;80.20
4962;DHT22;2496;52.468;13.342;2023-05-10T11:33:21;20.80;80.20
4962;DHT22;2496;52.468;13.342;2023-05-10T11:35:48;20.90;79.80
4962;DHT22;2496;52.468;13.342;2023-05-10T11:38:16;21.00;78.10
4962;DHT22;2496;52.468;13.342;2023-05-10T11:40:43;21.00;76.70
4962;DHT22;2496;52.468;13.342;2023-05-10T11:43:10;20.90;77.10
4962;DHT22;2496;52.468;13.342;2023-05-10T11:45:39;20.70;77.50
4962;DHT22;2496;52.468;13.342;2023-05-10T11:48:06;20.80;78.30
4962;DHT22;2496;52.468;13.342;2023-05-10T11:50:34;20.90;77.40
4962;DHT22;2496;52.468;13.342;2023-05-10T11:53:01;20.80;77.60
4962;DHT22;2496;52.468;13.342;2023-05-10T11:55:30;20.80;78.40
4962;DHT22;2496;52.468;13.342;2023-05-10T11:58:01;20.90;77.50
4962;DHT22;2496;52.468;13.342;2023-05-10T12:00:29;21.00;77.60
4962;DHT22;2496;52.468;13.342;2023-05-10T12:02:57;21.20;77.90
4962;DHT22;2496;52.468;13.342;2023-05-10T12:05:25;21.20;77.90
4962;DHT22;2496;52.468;13.342;2023-05-10T12:07:52;21.30;77.60
4962;DHT22;2496;52.468;13.342;2023-05-10T12:10:25;21.30;75.60
4962;DHT22;2496;52.468;13.342;2023-05-10T12:12:54;21.30;75.90
4962;DHT22;2496;52.468;13.342;2023-05-10T12:15:24;21.40;76.60
4962;DHT22;2496;52.468;13.342;2023-05-10T12:17:53;21.50;76.90
4962;DHT22;2496;52.468;13.342;2023-05-10T12:20:23;21.50;77.10
4962;DHT22;2496;52.468;13.342;2023-05-10T12:22:51;21.40;76.60
4962;DHT22;2496;52.468;13.342;2023-05-10T12:25:19;21.40;77.50
4962;DHT22;2496;52.468;13.342;2023-05-10T12:27:51;21.60;76.40
4962;DHT22;2496;52.468;13.342;2023-05-10T12:30:24;21.60;75.80
4962;DHT22;2496;52.468;13.342;2023-05-10T12:32:52;21.70;75.80
4962;DHT22;2496;52.468;13.342;2023-05-10T12:35:19;21.80;75.30
4962;DHT22;2496;52.468;13.342;2023-05-10T12:37:49;21.90;75.40
4962;DHT22;2496;52.468;13.342;2023-05-10T12:40:17;22.00;75.70
4962;DHT22;2496;52.468;13.342;2023-05-10T12:42:44;22.10;74.90
4962;DHT22;2496;52.468;13.342;2023-05-10T12:45:11;22.10;74.30
4962;DHT22;2496;52.468;13.342;2023-05-10T12:47:40;22.10;74.70
4962;DHT22;2496;52.468;13.342;2023-05-10T12:50:07;22.00;74.00
4962;DHT22;2496;52.468;13.342;2023-05-10T12:52:34;22.00;74.20
4962;DHT22;2496;52.468;13.342;2023-05-10T12:55:02;22.00;75.00
4962;DHT22;2496;52.468;13.342;2023-05-10T12:57:29;21.90;73.30
4962;DHT22;2496;52.468;13.342;2023-05-10T12:59:56;22.00;73.50
4962;DHT22;2496;52.468;13.342;2023-05-10T13:02:23;22.10;73.50
4962;DHT22;2496;52.468;13.342;2023-05-10T13:04:52;22.00;73.70
4962;DHT22;2496;52.468;13.342;2023-05-10T13:07:19;21.90;74.00
4962;DHT22;2496;52.468;13.342;2023-05-10T13:09:46;21.90;73.90
4962;DHT22;2496;52.468;13.342;2023-05-10T13:12:13;21.90;73.40
4962;DHT22;2496;52.468;13.342;2023-05-10T13:14:40;21.90;73.40
4962;DHT22;2496;52.468;13.342;2023-05-10T13:17:07;21.90;73.40
4962;DHT22;2496;52.468;13.342;2023-05-10T13:19:34;21.90;74.30
4962;DHT22;2496;52.468;13.342;2023-05-10T13:22:03;21.90;73.50
4962;DHT22;2496;52.468;13.342;2023-05-10T13:24:30;21.90;74.30
4962;DHT22;2496;52.468;13.342;2023-05-10T13:26:57;21.90;74.50
4962;DHT22;2496;52.468;13.342;2023-05-10T13:29:24;22.10;74.10
4962;DHT22;2496;52.468;13.342;2023-05-10T13:31:51;22.20;73.80
4962;DHT22;2496;52.468;13.342;2023-05-10T13:34:18;22.30;73.20
4962;DHT22;2496;52.468;13.342;2023-05-10T13:36:47;22.40;72.80
4962;DHT22;2496;52.468;13.342;2023-05-10T13:39:16;22.40;71.80
4962;DHT22;2496;52.468;13.342;2023-05-10T13:41:43;22.40;71.00
4962;DHT22;2496;52.468;13.342;2023-05-10T13:44:12;22.40;71.40
4962;DHT22;2496;52.468;13.342;2023-05-10T13:46:39;22.40;71.60
4962;DHT22;2496;52.468;13.342;2023-05-10T13:49:06;22.50;72.70
4962;DHT22;2496;52.468;13.342;2023-05-10T13:51:34;22.50;73.00
4962;DHT22;2496;52.468;13.342;2023-05-10T13:54:01;22.50;72.10
4962;DHT22;2496;52.468;13.342;2023-05-10T13:56:29;22.60;71.90
4962;DHT22;2496;52.468;13.342;2023-05-10T13:58:57;22.60;71.30
4962;DHT22;2496;52.468;13.342;2023-05-10T14:01:24;22.60;71.00
4962;DHT22;2496;52.468;13.342;2023-05-10T14:03:51;22.70;71.50
4962;DHT22;2496;52.468;13.342;2023-05-10T14:06:18;22.70;70.60
4962;DHT22;2496;52.468;13.342;2023-05-10T14:08:45;22.60;69.80
4962;DHT22;2496;52.468;13.342;2023-05-10T14:11:12;22.50;69.50
4962;DHT22;2496;52.468;13.342;2023-05-10T14:13:40;22.30;69.70
4962;DHT22;2496;52.468;13.342;2023-05-10T14:16:07;22.20;69.10
4962;DHT22;2496;52.468;13.342;2023-05-10T14:18:34;22.10;68.50
4962;DHT22;2496;52.468;13.342;2023-05-10T14:21:02;22.20;68.80
4962;DHT22;2496;52.468;13.342;2023-05-10T14:23:30;22.30;69.40
4962;DHT22;2496;52.468;13.342;2023-05-10T14:25:57;22.30;69.60
4962;DHT22;2496;52.468;13.342;2023-05-10T14:28:24;22.20;69.40
4962;DHT22;2496;52.468;13.342;2023-05-10T14:30:52;22.30;69.30
4962;DHT22;2496;52.468;13.342;2023-05-10T14:33:19;22.20;69.80
4962;DHT22;2496;52.468;13.342;2023-05-10T14:35:47;22.30;68.50
4962;DHT22;2496;52.468;13.342;2023-05-10T14:38:14;22.30;69.00
4962;DHT22;2496;52.468;13.342;2023-05-10T14:40:41;22.30;69.10
4962;DHT22;2496;52.468;13.342;2023-05-10T14:43:09;22.30;70.20
4962;DHT22;2496;52.468;13.342;2023-05-10T14:45:36;22.40;71.30
4962;DHT22;2496;52.468;13.342;2023-05-10T14:48:04;22.30;70.50
4962;DHT22;2496;52.468;13.342;2023-05-10T14:50:31;22.30;70.30
4962;DHT22;2496;52.468;13.342;2023-05-10T14:52:58;22.40;69.80
4962;DHT22;2496;52.468;13.342;2023-05-10T14:55:25;22.40;69.70
4962;DHT22;2496;52.468;13.342;2023-05-10T14:57:52;22.40;69.10
4962;DHT22;2496;52.468;13.342;2023-05-10T15:00:20;22.30;69.30
4962;DHT22;2496;52.468;13.342;2023-05-10T15:02:47;22.30;70.00
4962;DHT22;2496;52.468;13.342;2023-05-10T15:05:16;22.30;69.60
4962;DHT22;2496;52.468;13.342;2023-05-10T15:07:43;22.30;70.30
4962;DHT22;2496;52.468;13.342;2023-05-10T15:10:11;22.30;69.50
4962;DHT22;2496;52.468;13.342;2023-05-10T15:12:39;22.20;69.70
4962;DHT22;2496;52.468;13.342;2023-05-10T15:15:08;22.20;70.00
4962;DHT22;2496;52.468;13.342;2023-05-10T15:17:35;22.30;70.20
4962;DHT22;2496;52.468;13.342;2023-05-10T15:20:02;22.30;70.10
4962;DHT22;2496;52.468;13.342;2023-05-10T15:22:31;22.40;70.00
4962;DHT22;2496;52.468;13.342;2023-05-10T15:24:58;22.30;70.00
4962;DHT22;2496;52.468;13.342;2023-05-10T15:27:25;22.40;70.20
4962;DHT22;2496;52.468;13.342;2023-05-10T15:29:52;22.40;70.50
4962;DHT22;2496;52.468;13.342;2023-05-10T15:32:19;22.40;70.30
4962;DHT22;2496;52.468;13.342;2023-05-10T15:34:46;22.30;70.60
4962;DHT22;2496;52.468;13.342;2023-05-10T15:37:13;22.20;70.60
4962;DHT22;2496;52.468;13.342;2023-05-10T15:39:42;22.30;71.00
4962;DHT22;2496;52.468;13.342;2023-05-10T15:42:09;22.20;71.30
4962;DHT22;2496;52.468;13.342;2023-05-10T15:44:36;22.20;71.50
4962;DHT22;2496;52.468;13.342;2023-05-10T15:47:04;22.20;71.70
4962;DHT22;2496;52.468;13.342;2023-05-10T15:49:31;22.10;71.70
4962;DHT22;2496;52.468;13.342;2023-05-10T15:51:58;22.20;71.60
4962;DHT22;2496;52.468;13.342;2023-05-10T15:54:25;22.10;71.70
4962;DHT22;2496;52.468;13.342;2023-05-10T15:56:54;22.10;71.60
4962;DHT22;2496;52.468;13.342;2023-05-10T15:59:21;22.00;71.80